sensor_id;sensor_type;location;lat;lon;timestamp;temperature;humidity
25918;DHT22;13899;51.174;4.456;2024-03-23T00:55:44;8.00;99.90
25918;DHT22;13899;51.174;4.456;2024-03-23T00:58:09;8.10;99.90
25918;DHT22;13899;51.174;4.456;2024-03-23T01:00:35;8.70;99.90
25918;DHT22;13899;51.174;4.456;2024-03-23T01:03:00;8.50;99.90
25918;DHT22;13899;51.174;4.456;2024-03-23T01:05:26;7.80;99.90
25918;DHT22;13899;51.174;4.456;2024-03-23T01:07:52;7.70;99.90
25918;DHT22;13899;51.174;4.456;2024-03-23T01:10:17;7.80;99.90
25918;DHT22;13899;51.174;4.456;2024-03-23T01:12:43;7.80;99.90
25918;DHT22;13899;51.174;4.456;2024-03-23T01:15:08;7.80;99.90
25918;DHT22;13899;51.174;4.456;2024-03-23T01:17:34;7.60;99.90
25918;DHT22;13899;51.174;4.456;2024-03-23T01:19:59;7.70;99.90
25918;DHT22;13899;51.174;4.456;2024-03-23T01:22:25;8.10;99.90
25918;DHT22;13899;51.174;4.456;2024-03-23T01:24:50;7.90;99.90
25918;DHT22;13899;51.174;4.456;2024-03-23T01:27:16;7.70;99.90
25918;DHT22;13899;51.174;4.456;2024-03-23T01:29:41;7.60;99.90
25918;DHT22;13899;51.174;4.456;2024-03-23T01:32:07;7.50;99.90
25918;DHT22;13899;51.174;4.456;2024-03-23T01:34:32;7.80;99.90
25918;DHT22;13899;51.174;4.456;2024-03-23T01:36:58;8.00;99.90
25918;DHT22;13899;51.174;4.456;2024-03-23T01:39:24;8.10;99.90
25918;DHT22;13899;51.174;4.456;2024-03-23T01:41:49;8.20;99.90
25918;DHT22;13899;51.174;4.456;2024-03-23T01:44:15;8.50;99.90
25918;DHT22;13899;51.174;4.456;2024-03-23T01:46:41;8.10;99.90
25918;DHT22;13899;51.174;4.456;2024-03-23T01:49:07;7.80;99.90
25918;DHT22;13899;51.174;4.456;2024-03-23T01:51:33;7.60;99.90
25918;DHT22;13899;51.174;4.456;2024-03-23T01:53:59;7.50;99.90
25918;DHT22;13899;51.174;4.456;2024-03-23T01:56:28;7.80;99.90
25918;DHT22;13899;51.174;4.456;2024-03-23T01:58:54;7.80;99.90
25918;DHT22;13899;51.174;4.456;2024-03-23T02:01:19;7.70;99.90
25918;DHT22;13899;51.174;4.456;2024-03-23T02:03:45;7.50;99.90
25918;DHT22;13899;51.174;4.456;2024-03-23T02:06:10;7.60;99.90
25918;DHT22;13899;51.174;4.456;2024-03-23T02:08:36;7.50;99.90
25918;DHT22;13899;51.174;4.456;2024-03-23T02:11:01;7.80;99.90
25918;DHT22;13899;51.174;4.456;2024-03-23T02:13:27;7.70;99.90
25918;DHT22;13899;51.174;4.456;2024-03-23T02:15:52;7.80;99.90
25918;DHT22;13899;51.174;4.456;2024-03-23T02:18:18;8.10;99.90
25918;DHT22;13899;51.174;4.456;2024-03-23T02:20:43;8.30;99.90
25918;DHT22;13899;51.174;4.456;2024-03-23T02:23:13;8.00;99.90
25918;DHT22;13899;51.174;4.456;2024-03-23T02:25:38;7.70;99.90
25918;DHT22;13899;51.174;4.456;2024-03-23T02:28:04;7.90;99.90
25918;DHT22;13899;51.174;4.456;2024-03-23T02:30:30;8.30;99.90
25918;DHT22;13899;51.174;4.456;2024-03-23T02:32:55;8.50;99.90
25918;DHT22;13899;51.174;4.456;2024-03-23T02:35:21;8.60;99.90
25918;DHT22;13899;51.174;4.456;2024-03-23T02:37:46;8.50;99.90
25918;DHT22;13899;51.174;4.456;2024-03-23T02:40:14;8.60;99.90
25918;DHT22;13899;51.174;4.456;2024-03-23T02:42:39;8.40;99.90
25918;DHT22;13899;51.174;4.456;2024-03-23T02:45:05;8.50;99.90
25918;DHT22;13899;51.174;4.456;2024-03-23T02:47:30;8.40;99.90
25918;DHT22;13899;51.174;4.456;2024-03-23T02:49:56;8.50;99.90
25918;DHT22;13899;51.174;4.456;2024-03-23T02:52:21;8.40;99.90
25918;DHT22;13899;51.174;4.456;2024-03-23T02:54:47;8.50;99.90
25918;DHT22;13899;51.174;4.456;2024-03-23T02:57:12;8.30;99.90
25918;DHT22;13899;51.174;4.456;2024-03-23T02:59:38;8.40;99.90
25918;DHT22;13899;51.174;4.456;2024-03-23T03:02:04;8.50;99.90
25918;DHT22;13899;51.174;4.456;2024-03-23T03:04:30;8.60;99.90
25918;DHT22;13899;51.174;4.456;2024-03-23T03:06:56;8.60;99.90
25918;DHT22;13899;51.174;4.456;2024-03-23T03:09:21;8.70;99.90
25918;DHT22;13899;51.174;4.456;2024-03-23T03:11:47;8.80;99.90
25918;DHT22;13899;51.174;4.456;2024-03-23T03:14:13;8.50;99.90
25918;DHT22;13899;51.174;4.456;2024-03-23T03:16:38;8.00;99.90
25918;DHT22;13899;51.174;4.456;2024-03-23T03:19:04;8.10;99.90
25918;DHT22;13899;51.174;4.456;2024-03-23T03:21:29;8.10;99.90
25918;DHT22;13899;51.174;4.456;2024-03-23T03:23:56;7.80;99.90
25918;DHT22;13899;51.174;4.456;2024-03-23T03:26:23;7.80;99.90
25918;DHT22;13899;51.174;4.456;2024-03-23T03:28:49;7.80;99.90
25918;DHT22;13899;51.174;4.456;2024-03-23T03:31:15;7.80;99.90
25918;DHT22;13899;51.174;4.456;2024-03-23T03:33:41;7.40;99.90
25918;DHT22;13899;51.174;4.456;2024-03-23T03:36:07;7.50;99.90
25918;DHT22;13899;51.174;4.456;2024-03-23T03:38:33;7.80;99.90
25918;DHT22;13899;51.174;4.456;2024-03-23T03:41:00;8.10;99.90
25918;DHT22;13899;51.174;4.456;2024-03-23T03:43:26;8.10;99.90
25918;DHT22;13899;51.174;4.456;2024-03-23T03:45:55;7.80;99.90
25918;DHT22;13899;51.174;4.456;2024-03-23T03:48:21;7.80;99.90
25918;DHT22;13899;51.174;4.456;2024-03-23T03:50:47;8.10;99.90
25918;DHT22;13899;51.174;4.456;2024-03-23T03:53:12;8.20;99.90
25918;DHT22;13899;51.174;4.456;2024-03-23T03:55:38;8.30;99.90
25918;DHT22;13899;51.174;4.456;2024-03-23T03:58:03;8.40;99.90
25918;DHT22;13899;51.174;4.456;2024-03-23T04:00:30;8.30;99.90
25918;DHT22;13899;51.174;4.456;2024-03-23T04:02:56;7.90;99.90
25918;DHT22;13899;51.174;4.456;2024-03-23T04:05:21;7.40;99.90
25918;DHT22;13899;51.174;4.456;2024-03-23T04:07:47;7.20;99.90
25918;DHT22;13899;51.174;4.456;2024-03-23T04:10:14;7.40;99.90
25918;DHT22;13899;51.174;4.456;2024-03-23T04:12:40;7.70;99.90
25918;DHT22;13899;51.174;4.456;2024-03-23T04:15:06;7.80;99.90
25918;DHT22;13899;51.174;4.456;2024-03-23T04:17:32;7.70;99.90
25918;DHT22;13899;51.174;4.456;2024-03-23T04:19:59;8.10;99.90
25918;DHT22;13899;51.174;4.456;2024-03-23T04:22:25;8.20;99.90
25918;DHT22;13899;51.174;4.456;2024-03-23T04:24:54;8.10;99.90
25918;DHT22;13899;51.174;4.456;2024-03-23T04:27:20;8.20;99.90
25918;DHT22;13899;51.174;4.456;2024-03-23T04:29:49;7.90;99.90
25918;DHT22;13899;51.174;4.456;2024-03-23T04:32:15;7.60;99.90
25918;DHT22;13899;51.174;4.456;2024-03-23T04:34:41;7.10;99.90
25918;DHT22;13899;51.174;4.456;2024-03-23T04:37:06;7.50;99.90
25918;DHT22;13899;51.174;4.456;2024-03-23T04:39:33;7.90;99.90
25918;DHT22;13899;51.174;4.456;2024-03-23T04:41:58;8.20;99.90
25918;DHT22;13899;51.174;4.456;2024-03-23T04:44:24;8.00;99.90
25918;DHT22;13899;51.174;4.456;2024-03-23T04:46:49;7.80;99.90
25918;DHT22;13899;51.174;4.456;2024-03-23T04:49:15;7.40;99.90
25918;DHT22;13899;51.174;4.456;2024-03-23T04:51:40;7.30;99.90
25918;DHT22;13899;51.174;4.456;2024-03-23T04:54:14;7.30;99.90
25918;DHT22;13899;51.174;4.456;2024-03-23T04:56:39;6.90;99.90
25918;DHT22;13899;51.174;4.456;2024-03-23T04:59:05;7.20;99.90
25918;DHT22;13899;51.174;4.456;2024-03-23T05:01:31;7.40;99.90
25918;DHT22;13899;51.174;4.456;2024-03-23T05:03:57;7.30;99.90
25918;DHT22;13899;51.174;4.456;2024-03-23T05:06:23;7.00;99.90
25918;DHT22;13899;51.174;4.456;2024-03-23T05:08:48;6.70;99.90
25918;DHT22;13899;51.174;4.456;2024-03-23T05:11:14;6.80;99.90
25918;DHT22;13899;51.174;4.456;2024-03-23T05:13:41;6.80;99.90
25918;DHT22;13899;51.174;4.456;2024-03-23T05:16:06;6.80;99.90
25918;DHT22;13899;51.174;4.456;2024-03-23T05:18:32;6.70;99.90
25918;DHT22;13899;51.174;4.456;2024-03-23T05:20:58;6.80;99.90
25918;DHT22;13899;51.174;4.456;2024-03-23T05:23:27;6.80;99.90
25918;DHT22;13899;51.174;4.456;2024-03-23T05:25:53;6.70;99.90
25918;DHT22;13899;51.174;4.456;2024-03-23T05:28:19;6.70;99.90
25918;DHT22;13899;51.174;4.456;2024-03-23T05:30:49;6.50;99.90
25918;DHT22;13899;51.174;4.456;2024-03-23T05:33:15;6.40;99.90
25918;DHT22;13899;51.174;4.456;2024-03-23T05:35:40;6.30;99.90
25918;DHT22;13899;51.174;4.456;2024-03-23T05:38:06;6.30;99.90
25918;DHT22;13899;51.174;4.456;2024-03-23T05:40:31;6.40;99.90
25918;DHT22;13899;51.174;4.456;2024-03-23T05:42:57;6.40;99.90
25918;DHT22;13899;51.174;4.456;2024-03-23T05:45:23;6.50;99.90
25918;DHT22;13899;51.174;4.456;2024-03-23T05:47:48;6.60;99.90
25918;DHT22;13899;51.174;4.456;2024-03-23T05:50:15;6.60;99.90
25918;DHT22;13899;51.174;4.456;2024-03-23T05:52:40;6.60;99.90
25918;DHT22;13899;51.174;4.456;2024-03-23T05:55:07;6.90;99.90
25918;DHT22;13899;51.174;4.456;2024-03-23T05:57:33;7.00;99.90
25918;DHT22;13899;51.174;4.456;2024-03-23T05:59:58;6.90;99.90
25918;DHT22;13899;51.174;4.456;2024-03-23T06:02:24;6.90;99.90
25918;DHT22;13899;51.174;4.456;2024-03-23T06:04:49;7.10;99.90
25918;DHT22;13899;51.174;4.456;2024-03-23T06:07:15;7.00;99.90
25918;DHT22;13899;51.174;4.456;2024-03-23T06:09:41;6.90;99.90
25918;DHT22;13899;51.174;4.456;2024-03-23T06:12:07;6.90;99.90
25918;DHT22;13899;51.174;4.456;2024-03-23T06:14:32;6.70;99.90
25918;DHT22;13899;51.174;4.456;2024-03-23T06:16:59;6.60;99.90
25918;DHT22;13899;51.174;4.456;2024-03-23T06:19:25;6.60;99.90
25918;DHT22;13899;51.174;4.456;2024-03-23T06:21:53;6.80;99.90
25918;DHT22;13899;51.174;4.456;2024-03-23T06:24:18;6.80;99.90
25918;DHT22;13899;51.174;4.456;2024-03-23T06:26:45;6.60;99.90
25918;DHT22;13899;51.174;4.456;2024-03-23T06:29:11;6.50;99.90
25918;DHT22;13899;51.174;4.456;2024-03-23T06:31:36;6.60;99.90
25918;DHT22;13899;51.174;4.456;2024-03-23T06:34:02;6.70;99.90
25918;DHT22;13899;51.174;4.456;2024-03-23T06:36:27;6.60;99.90
25918;DHT22;13899;51.174;4.456;2024-03-23T06:38:54;6.50;99.90
25918;DHT22;13899;51.174;4.456;2024-03-23T06:41:19;6.60;99.90
25918;DHT22;13899;51.174;4.456;2024-03-23T06:43:45;6.80;99.90
25918;DHT22;13899;51.174;4.456;2024-03-23T06:46:10;6.80;99.90
25918;DHT22;13899;51.174;4.456;2024-03-23T06:48:36;6.80;99.90
25918;DHT22;13899;51.174;4.456;2024-03-23T06:51:01;6.90;99.90
25918;DHT22;13899;51.174;4.456;2024-03-23T06:53:27;7.10;99.90
25918;DHT22;13899;51.174;4.456;2024-03-23T06:55:53;7.00;99.90
25918;DHT22;13899;51.174;4.456;2024-03-23T06:58:19;6.90;99.90
25918;DHT22;13899;51.174;4.456;2024-03-23T07:00:45;7.00;99.90
25918;DHT22;13899;51.174;4.456;2024-03-23T07:03:11;7.10;99.90
25918;DHT22;13899;51.174;4.456;2024-03-23T07:05:37;7.10;99.90
25918;DHT22;13899;51.174;4.456;2024-03-23T07:08:03;7.20;99.90
25918;DHT22;13899;51.174;4.456;2024-03-23T07:10:29;7.30;99.90
25918;DHT22;13899;51.174;4.456;2024-03-23T07:12:54;7.30;99.90
25918;DHT22;13899;51.174;4.456;2024-03-23T07:15:20;7.40;99.90
25918;DHT22;13899;51.174;4.456;2024-03-23T07:17:48;7.70;99.90
25918;DHT22;13899;51.174;4.456;2024-03-23T07:20:14;7.80;99.90
25918;DHT22;13899;51.174;4.456;2024-03-23T07:22:39;7.90;99.90
25918;DHT22;13899;51.174;4.456;2024-03-23T07:25:05;7.80;99.90
25918;DHT22;13899;51.174;4.456;2024-03-23T07:27:31;7.60;99.90
25918;DHT22;13899;51.174;4.456;2024-03-23T07:29:57;7.60;99.90
25918;DHT22;13899;51.174;4.456;2024-03-23T07:32:23;7.50;99.90
25918;DHT22;13899;51.174;4.456;2024-03-23T07:34:48;7.30;99.90
25918;DHT22;13899;51.174;4.456;2024-03-23T07:37:14;7.40;99.90
25918;DHT22;13899;51.174;4.456;2024-03-23T07:39:40;7.60;99.90
25918;DHT22;13899;51.174;4.456;2024-03-23T07:42:05;7.80;99.90
25918;DHT22;13899;51.174;4.456;2024-03-23T07:44:33;7.80;99.90
25918;DHT22;13899;51.174;4.456;2024-03-23T07:46:59;7.60;99.90
25918;DHT22;13899;51.174;4.456;2024-03-23T07:49:24;7.60;99.90
25918;DHT22;13899;51.174;4.456;2024-03-23T07:51:50;7.50;99.90
25918;DHT22;13899;51.174;4.456;2024-03-23T07:54:15;7.70;99.90
25918;DHT22;13899;51.174;4.456;2024-03-23T07:56:41;8.00;99.90
25918;DHT22;13899;51.174;4.456;2024-03-23T07:59:06;8.40;99.90
25918;DHT22;13899;51.174;4.456;2024-03-23T08:01:32;8.50;99.90
25918;DHT22;13899;51.174;4.456;2024-03-23T08:03:57;8.60;99.90
25918;DHT22;13899;51.174;4.456;2024-03-23T08:06:27;8.60;99.90
25918;DHT22;13899;51.174;4.456;2024-03-23T08:08:54;8.70;99.90
25918;DHT22;13899;51.174;4.456;2024-03-23T08:11:28;8.70;99.90
25918;DHT22;13899;51.174;4.456;2024-03-23T08:13:54;8.90;99.90
25918;DHT22;13899;51.174;4.456;2024-03-23T08:16:20;8.50;99.90
25918;DHT22;13899;51.174;4.456;2024-03-23T08:18:45;8.60;99.90
25918;DHT22;13899;51.174;4.456;2024-03-23T08:21:11;8.70;99.90
25918;DHT22;13899;51.174;4.456;2024-03-23T08:23:36;8.60;99.90
25918;DHT22;13899;51.174;4.456;2024-03-23T08:26:12;8.80;99.90
25918;DHT22;13899;51.174;4.456;2024-03-23T08:28:38;8.90;99.90
25918;DHT22;13899;51.174;4.456;2024-03-23T08:31:04;8.80;99.90
25918;DHT22;13899;51.174;4.456;2024-03-23T08:33:34;8.70;99.90
25918;DHT22;13899;51.174;4.456;2024-03-23T08:36:01;8.70;99.90
25918;DHT22;13899;51.174;4.456;2024-03-23T08:38:27;8.70;99.90
25918;DHT22;13899;51.174;4.456;2024-03-23T08:41:03;8.90;99.90
25918;DHT22;13899;51.174;4.456;2024-03-23T08:43:38;8.80;99.90
25918;DHT22;13899;51.174;4.456;2024-03-23T08:46:08;8.80;99.90
25918;DHT22;13899;51.174;4.456;2024-03-23T08:48:34;8.90;99.90
25918;DHT22;13899;51.174;4.456;2024-03-23T08:51:03;9.40;99.90
25918;DHT22;13899;51.174;4.456;2024-03-23T08:53:29;9.40;99.90
25918;DHT22;13899;51.174;4.456;2024-03-23T08:56:03;8.70;99.90
25918;DHT22;13899;51.174;4.456;2024-03-23T08:58:30;8.70;99.90
25918;DHT22;13899;51.174;4.456;2024-03-23T09:01:13;9.00;99.90
25918;DHT22;13899;51.174;4.456;2024-03-23T09:03:39;8.80;99.90
25918;DHT22;13899;51.174;4.456;2024-03-23T09:06:07;8.80;99.90
25918;DHT22;13899;51.174;4.456;2024-03-23T09:08:33;9.00;99.90
25918;DHT22;13899;51.174;4.456;2024-03-23T09:11:03;9.00;99.90
25918;DHT22;13899;51.174;4.456;2024-03-23T09:13:28;9.10;99.90
25918;DHT22;13899;51.174;4.456;2024-03-23T09:15:54;9.10;99.90
25918;DHT22;13899;51.174;4.456;2024-03-23T09:18:21;9.30;99.90
25918;DHT22;13899;51.174;4.456;2024-03-23T09:20:48;9.80;99.90
25918;DHT22;13899;51.174;4.456;2024-03-23T09:23:14;9.80;99.90
25918;DHT22;13899;51.174;4.456;2024-03-23T09:25:40;10.00;99.90
25918;DHT22;13899;51.174;4.456;2024-03-23T09:28:06;9.90;99.90
25918;DHT22;13899;51.174;4.456;2024-03-23T09:30:32;9.90;99.90
25918;DHT22;13899;51.174;4.456;2024-03-23T09:33:07;9.90;99.90
25918;DHT22;13899;51.174;4.456;2024-03-23T09:35:38;10.10;99.90
25918;DHT22;13899;51.174;4.456;2024-03-23T09:38:04;10.10;99.90
25918;DHT22;13899;51.174;4.456;2024-03-23T09:40:29;9.80;99.90
25918;DHT22;13899;51.174;4.456;2024-03-23T09:42:55;9.30;99.90
25918;DHT22;13899;51.174;4.456;2024-03-23T09:45:29;9.00;99.90
25918;DHT22;13899;51.174;4.456;2024-03-23T09:47:55;8.00;99.90
25918;DHT22;13899;51.174;4.456;2024-03-23T09:50:21;7.80;99.90
25918;DHT22;13899;51.174;4.456;2024-03-23T09:52:47;7.50;99.90
25918;DHT22;13899;51.174;4.456;2024-03-23T09:55:12;7.30;99.90
25918;DHT22;13899;51.174;4.456;2024-03-23T09:57:44;7.30;99.90
25918;DHT22;13899;51.174;4.456;2024-03-23T10:00:10;7.70;99.90
25918;DHT22;13899;51.174;4.456;2024-03-23T10:02:40;9.10;99.90
25918;DHT22;13899;51.174;4.456;2024-03-23T10:05:19;9.30;99.90
25918;DHT22;13899;51.174;4.456;2024-03-23T10:07:45;9.50;99.90
25918;DHT22;13899;51.174;4.456;2024-03-23T10:10:13;8.80;99.90
25918;DHT22;13899;51.174;4.456;2024-03-23T10:12:43;8.50;99.90
25918;DHT22;13899;51.174;4.456;2024-03-23T10:15:23;8.60;99.90
25918;DHT22;13899;51.174;4.456;2024-03-23T10:17:58;8.30;99.90
25918;DHT22;13899;51.174;4.456;2024-03-23T10:20:23;8.90;99.90
25918;DHT22;13899;51.174;4.456;2024-03-23T10:22:49;8.90;99.90
25918;DHT22;13899;51.174;4.456;2024-03-23T10:25:16;9.20;99.90
25918;DHT22;13899;51.174;4.456;2024-03-23T10:27:41;9.90;99.90
25918;DHT22;13899;51.174;4.456;2024-03-23T10:30:12;10.00;99.90
25918;DHT22;13899;51.174;4.456;2024-03-23T10:32:44;10.20;99.90
25918;DHT22;13899;51.174;4.456;2024-03-23T10:35:20;9.90;99.90
25918;DHT22;13899;51.174;4.456;2024-03-23T10:37:50;10.10;99.90
25918;DHT22;13899;51.174;4.456;2024-03-23T10:40:18;9.90;99.90
25918;DHT22;13899;51.174;4.456;2024-03-23T10:42:44;9.00;99.90
25918;DHT22;13899;51.174;4.456;2024-03-23T10:45:09;8.50;99.90
25918;DHT22;13899;51.174;4.456;2024-03-23T10:47:35;7.80;99.90
25918;DHT22;13899;51.174;4.456;2024-03-23T10:50:04;7.10;99.90
25918;DHT22;13899;51.174;4.456;2024-03-23T10:52:31;6.90;99.90
25918;DHT22;13899;51.174;4.456;2024-03-23T10:54:58;7.30;99.90
25918;DHT22;13899;51.174;4.456;2024-03-23T10:57:27;7.40;99.90
25918;DHT22;13899;51.174;4.456;2024-03-23T10:59:54;8.30;99.90
25918;DHT22;13899;51.174;4.456;2024-03-23T11:02:21;10.70;99.90
25918;DHT22;13899;51.174;4.456;2024-03-23T11:07:53;14.50;99.90
25918;DHT22;13899;51.174;4.456;2024-03-23T11:10:25;14.90;99.90
25918;DHT22;13899;51.174;4.456;2024-03-23T11:12:54;16.60;99.90
25918;DHT22;13899;51.174;4.456;2024-03-23T11:15:19;15.80;99.90
25918;DHT22;13899;51.174;4.456;2024-03-23T11:18:05;14.00;99.90
25918;DHT22;13899;51.174;4.456;2024-03-23T11:20:34;13.80;99.90
25918;DHT22;13899;51.174;4.456;2024-03-23T11:23:00;14.90;99.90
25918;DHT22;13899;51.174;4.456;2024-03-23T11:25:27;14.10;99.90
25918;DHT22;13899;51.174;4.456;2024-03-23T11:28:11;12.60;99.90
25918;DHT22;13899;51.174;4.456;2024-03-23T11:30:58;11.90;99.90
25918;DHT22;13899;51.174;4.456;2024-03-23T11:33:25;11.50;99.90
25918;DHT22;13899;51.174;4.456;2024-03-23T11:36:03;10.50;99.90
25918;DHT22;13899;51.174;4.456;2024-03-23T11:38:29;9.70;99.90
25918;DHT22;13899;51.174;4.456;2024-03-23T11:40:56;9.60;99.90
25918;DHT22;13899;51.174;4.456;2024-03-23T11:43:21;10.10;99.90
25918;DHT22;13899;51.174;4.456;2024-03-23T11:45:52;10.50;99.90
25918;DHT22;13899;51.174;4.456;2024-03-23T11:48:38;10.90;99.90
25918;DHT22;13899;51.174;4.456;2024-03-23T11:51:04;11.10;99.90
25918;DHT22;13899;51.174;4.456;2024-03-23T11:53:31;12.40;99.90
25918;DHT22;13899;51.174;4.456;2024-03-23T11:55:59;12.50;99.90
25918;DHT22;13899;51.174;4.456;2024-03-23T11:58:25;11.80;99.90
25918;DHT22;13899;51.174;4.456;2024-03-23T12:00:57;11.70;99.90
25918;DHT22;13899;51.174;4.456;2024-03-23T12:03:25;10.70;99.90
25918;DHT22;13899;51.174;4.456;2024-03-23T12:05:53;10.30;99.90
25918;DHT22;13899;51.174;4.456;2024-03-23T12:08:20;9.70;99.90
25918;DHT22;13899;51.174;4.456;2024-03-23T12:10:48;9.70;99.90
25918;DHT22;13899;51.174;4.456;2024-03-23T12:13:20;10.60;99.90
25918;DHT22;13899;51.174;4.456;2024-03-23T12:15:46;11.70;99.90
25918;DHT22;13899;51.174;4.456;2024-03-23T12:18:12;13.20;99.90
25918;DHT22;13899;51.174;4.456;2024-03-23T12:20:38;14.00;99.90
25918;DHT22;13899;51.174;4.456;2024-03-23T12:23:04;13.10;99.90
25918;DHT22;13899;51.174;4.456;2024-03-23T12:25:34;11.50;99.90
25918;DHT22;13899;51.174;4.456;2024-03-23T12:28:12;10.60;99.90
25918;DHT22;13899;51.174;4.456;2024-03-23T12:30:39;10.00;99.90
25918;DHT22;13899;51.174;4.456;2024-03-23T12:33:08;10.10;99.90
25918;DHT22;13899;51.174;4.456;2024-03-23T12:35:36;9.60;99.90
25918;DHT22;13899;51.174;4.456;2024-03-23T12:38:04;9.50;99.90
25918;DHT22;13899;51.174;4.456;2024-03-23T12:40:40;9.50;99.90
25918;DHT22;13899;51.174;4.456;2024-03-23T12:43:07;10.10;99.90
25918;DHT22;13899;51.174;4.456;2024-03-23T12:45:33;11.40;99.90
25918;DHT22;13899;51.174;4.456;2024-03-23T12:47:59;12.60;99.90
25918;DHT22;13899;51.174;4.456;2024-03-23T12:50:25;13.40;99.90
25918;DHT22;13899;51.174;4.456;2024-03-23T12:52:53;14.10;99.90
25918;DHT22;13899;51.174;4.456;2024-03-23T12:55:20;15.20;99.90
25918;DHT22;13899;51.174;4.456;2024-03-23T12:57:47;16.10;99.90
25918;DHT22;13899;51.174;4.456;2024-03-23T13:00:17;17.20;99.90
25918;DHT22;13899;51.174;4.456;2024-03-23T13:02:52;15.80;99.90
25918;DHT22;13899;51.174;4.456;2024-03-23T13:05:17;14.10;99.90
25918;DHT22;13899;51.174;4.456;2024-03-23T13:07:43;13.00;99.90
25918;DHT22;13899;51.174;4.456;2024-03-23T13:10:10;12.50;99.90
25918;DHT22;13899;51.174;4.456;2024-03-23T13:12:35;11.90;99.90
25918;DHT22;13899;51.174;4.456;2024-03-23T13:15:01;10.90;99.90
25918;DHT22;13899;51.174;4.456;2024-03-23T13:17:30;9.70;99.90
25918;DHT22;13899;51.174;4.456;2024-03-23T13:20:22;8.80;99.90
25918;DHT22;13899;51.174;4.456;2024-03-23T13:22:47;8.50;99.90
25918;DHT22;13899;51.174;4.456;2024-03-23T13:25:13;8.40;99.90
25918;DHT22;13899;51.174;4.456;2024-03-23T13:27:40;8.60;99.90
25918;DHT22;13899;51.174;4.456;2024-03-23T13:30:06;8.60;99.90
25918;DHT22;13899;51.174;4.456;2024-03-23T13:32:36;7.60;99.90
25918;DHT22;13899;51.174;4.456;2024-03-23T13:35:04;6.70;99.90
25918;DHT22;13899;51.174;4.456;2024-03-23T13:37:32;6.60;99.90
25918;DHT22;13899;51.174;4.456;2024-03-23T13:39:57;6.50;99.90
25918;DHT22;13899;51.174;4.456;2024-03-23T13:42:23;6.50;99.90
25918;DHT22;13899;51.174;4.456;2024-03-23T13:44:51;6.80;99.90
25918;DHT22;13899;51.174;4.456;2024-03-23T13:47:16;6.80;99.90
25918;DHT22;13899;51.174;4.456;2024-03-23T13:49:42;7.10;99.90
25918;DHT22;13899;51.174;4.456;2024-03-23T13:52:12;7.60;99.90
25918;DHT22;13899;51.174;4.456;2024-03-23T13:54:39;8.80;99.90
25918;DHT22;13899;51.174;4.456;2024-03-23T13:57:10;10.00;99.90
25918;DHT22;13899;51.174;4.456;2024-03-23T13:59:37;10.50;99.90
25918;DHT22;13899;51.174;4.456;2024-03-23T14:02:03;10.20;99.90
25918;DHT22;13899;51.174;4.456;2024-03-23T14:04:29;9.80;99.90
25918;DHT22;13899;51.174;4.456;2024-03-23T14:06:54;10.40;99.90
25918;DHT22;13899;51.174;4.456;2024-03-23T14:09:23;12.70;99.90
25918;DHT22;13899;51.174;4.456;2024-03-23T14:11:51;15.20;99.90
25918;DHT22;13899;51.174;4.456;2024-03-23T14:14:18;15.70;99.90
25918;DHT22;13899;51.174;4.456;2024-03-23T14:16:44;15.50;99.90
25918;DHT22;13899;51.174;4.456;2024-03-23T14:19:09;16.30;99.90
25918;DHT22;13899;51.174;4.456;2024-03-23T14:21:35;18.20;99.90
25918;DHT22;13899;51.174;4.456;2024-03-23T14:24:00;17.60;99.90
25918;DHT22;13899;51.174;4.456;2024-03-23T14:26:26;16.00;99.90
25918;DHT22;13899;51.174;4.456;2024-03-23T14:28:52;17.10;99.90
25918;DHT22;13899;51.174;4.456;2024-03-23T14:31:19;17.60;99.90
25918;DHT22;13899;51.174;4.456;2024-03-23T14:33:45;17.00;99.90
25918;DHT22;13899;51.174;4.456;2024-03-23T14:36:14;17.20;99.90
25918;DHT22;13899;51.174;4.456;2024-03-23T14:38:39;16.50;99.90
25918;DHT22;13899;51.174;4.456;2024-03-23T14:41:05;17.40;99.90
25918;DHT22;13899;51.174;4.456;2024-03-23T14:43:31;17.10;99.90
25918;DHT22;13899;51.174;4.456;2024-03-23T14:46:06;15.70;99.90
25918;DHT22;13899;51.174;4.456;2024-03-23T14:48:32;15.90;99.90
25918;DHT22;13899;51.174;4.456;2024-03-23T14:50:58;15.10;99.90
25918;DHT22;13899;51.174;4.456;2024-03-23T14:53:28;14.30;99.90
25918;DHT22;13899;51.174;4.456;2024-03-23T14:55:58;14.30;99.90
25918;DHT22;13899;51.174;4.456;2024-03-23T14:58:25;15.80;99.90
25918;DHT22;13899;51.174;4.456;2024-03-23T15:00:50;15.70;99.90
25918;DHT22;13899;51.174;4.456;2024-03-23T15:03:17;16.10;99.90
25918;DHT22;13899;51.174;4.456;2024-03-23T15:05:51;15.00;99.90
25918;DHT22;13899;51.174;4.456;2024-03-23T15:08:16;14.20;99.90
25918;DHT22;13899;51.174;4.456;2024-03-23T15:10:42;13.30;99.90
25918;DHT22;13899;51.174;4.456;2024-03-23T15:13:07;12.60;99.90
25918;DHT22;13899;51.174;4.456;2024-03-23T15:15:37;12.00;99.90
25918;DHT22;13899;51.174;4.456;2024-03-23T15:18:04;12.50;99.90
25918;DHT22;13899;51.174;4.456;2024-03-23T15:20:31;12.60;99.90
25918;DHT22;13899;51.174;4.456;2024-03-23T15:22:59;12.10;99.90
25918;DHT22;13899;51.174;4.456;2024-03-23T15:25:26;12.10;99.90
25918;DHT22;13899;51.174;4.456;2024-03-23T15:27:56;12.90;99.90
25918;DHT22;13899;51.174;4.456;2024-03-23T15:30:23;13.20;99.90
25918;DHT22;13899;51.174;4.456;2024-03-23T15:32:48;14.90;99.90
25918;DHT22;13899;51.174;4.456;2024-03-23T15:35:15;16.00;99.90
25918;DHT22;13899;51.174;4.456;2024-03-23T15:37:44;16.10;99.90
25918;DHT22;13899;51.174;4.456;2024-03-23T15:40:10;16.10;99.90
25918;DHT22;13899;51.174;4.456;2024-03-23T15:42:36;15.20;99.90
25918;DHT22;13899;51.174;4.456;2024-03-23T15:45:02;15.50;99.90
25918;DHT22;13899;51.174;4.456;2024-03-23T15:47:29;14.70;99.90
25918;DHT22;13899;51.174;4.456;2024-03-23T15:49:54;14.50;99.90
25918;DHT22;13899;51.174;4.456;2024-03-23T15:52:21;14.10;99.90
25918;DHT22;13899;51.174;4.456;2024-03-23T15:54:46;14.00;99.90
25918;DHT22;13899;51.174;4.456;2024-03-23T15:57:12;12.70;99.90
25918;DHT22;13899;51.174;4.456;2024-03-23T15:59:41;13.50;99.90
25918;DHT22;13899;51.174;4.456;2024-03-23T16:02:12;14.70;99.90
25918;DHT22;13899;51.174;4.456;2024-03-23T16:04:40;15.00;99.90
25918;DHT22;13899;51.174;4.456;2024-03-23T16:07:09;15.20;99.90
25918;DHT22;13899;51.174;4.456;2024-03-23T16:09:35;15.00;99.90
25918;DHT22;13899;51.174;4.456;2024-03-23T16:12:02;15.40;99.90
25918;DHT22;13899;51.174;4.456;2024-03-23T16:14:27;14.40;99.90
25918;DHT22;13899;51.174;4.456;2024-03-23T16:16:53;14.30;99.90
25918;DHT22;13899;51.174;4.456;2024-03-23T16:19:18;14.60;99.90
25918;DHT22;13899;51.174;4.456;2024-03-23T16:21:44;14.70;99.90
25918;DHT22;13899;51.174;4.456;2024-03-23T16:24:09;15.50;99.90
25918;DHT22;13899;51.174;4.456;2024-03-23T16:26:36;15.40;99.90
25918;DHT22;13899;51.174;4.456;2024-03-23T16:29:05;15.10;99.90
25918;DHT22;13899;51.174;4.456;2024-03-23T16:31:31;13.60;99.90
25918;DHT22;13899;51.174;4.456;2024-03-23T16:33:56;13.00;99.90
25918;DHT22;13899;51.174;4.456;2024-03-23T16:36:24;12.40;99.90
25918;DHT22;13899;51.174;4.456;2024-03-23T16:38:51;12.00;99.90